Weather observations for the past three days for
Fremont Municipal Airport
Metric (Imperial)
Date Time (cdt) Wind (kph) Vis. (km) Weather Sky Cond. Temperature (ºC) Relative Humidity Wind Chill (°C) Heat Index (°C) Pressure Precipitation (cm)
Air Dwpt 6 hour altimeter (cm) sea level (mb) 1 hr 3 hr 6 hr
Max. Min.
10 11:15 SW 7 16.09 Fair CLR 17.8 -1.3 27% 76.71 0.0
10 10:55 SW 9 16.09 Fair CLR 17.5 -1.1 28% 76.71 0.0
10 10:35 S 7 16.09 Fair CLR 16.6 -1.7 29% 76.73 0.0
10 10:15 SW 11 16.09 Fair CLR 16.4 -1.3 30% 76.71 0.0
10 09:55 Calm 16.09 Fair CLR 15.2 -0.8 34% 76.71 0.0
10 09:35 SW 7 16.09 Fair CLR 14.4 0.6 39% 76.71 0.0
10 09:15 Calm 16.09 Fair CLR 13 0.2 42% 76.68 0.0
10 08:55 Calm 16.09 Fair CLR 11.9 0.3 45% 76.68 0.0
10 08:35 W 6 16.09 Fair CLR 10.7 1 51% 76.68 0.0
10 07:55 W 9 16.09 Fair CLR 7.3 0.1 61% 6 76.66 0.0
10 07:35 W 7 16.09 Fair CLR 5.6 0 68% 4 76.66 0.0
10 07:15 W 6 16.09 Fair CLR 3.9 -0.7 72% 76.63 0.0
10 06:55 W 6 16.09 Fair CLR 3 -1.6 8.1 1.4 72% 76.63 0.0
10 06:35 NW 7 16.09 Fair CLR 2.4 -2.1 72% 1 76.61 0.0
10 06:15 NW 6 16.09 Fair CLR 2.1 -2.2 74% 76.61 0.0
10 05:55 NW 6 16.09 Fair CLR 3 -2.2 69% 76.61 0.0
10 05:35 Calm 16.09 Fair CLR 3.3 -2.3 67% 76.58 0.0
10 05:15 Calm 16.09 Fair CLR 3.4 -1.8 69% 76.58 0.0
10 04:55 W 6 16.09 Fair CLR 2.4 -1.9 74% 76.56 0.0
10 04:35 Calm 16.09 Fair CLR 3.8 -2 66% 76.56 0.0
10 04:15 W 6 16.09 Fair CLR 3.4 -2 68% 76.53 0.0
10 03:55 W 6 16.09 Fair CLR 3.6 -1.9 68% 76.5 0.0
10 03:35 W 6 16.09 Fair CLR 3.5 -1.9 68% 76.5 0.0
10 03:15 W 6 16.09 Fair CLR 4.6 -1.9 63% 76.48 0.0
10 02:55 Calm 16.09 Fair CLR 5.7 -2.2 57% 76.48 0.0
10 02:35 Calm 16.09 Fair CLR 6.5 -1.9 55% 76.45 0.0
10 02:15 Calm 16.09 Fair CLR 6 -1.2 60% 76.43 0.0
10 01:55 Calm 16.09 Fair CLR 6.5 -1.5 57% 76.43 0.0
10 01:35 Calm 16.09 Fair CLR 7.2 -0.6 58% 76.43 0.0
10 01:15 Calm 16.09 Fair CLR 7.2 -0.2 60% 76.43 0.0
10 00:55 Calm 16.09 Fair CLR 8.4 -1.2 20.8 8 51% 76.43 0.0
10 00:35 Calm 16.09 Fair CLR 8.1 -1.2 52% 76.4 0.0
10 00:15 N 13 16.09 Fair CLR 8.7 -0.9 51% 7 76.35 0.0
09 23:55 N 9 16.09 Fair CLR 8.7 -0.9 51% 7 76.33 0.0
09 23:35 N 7 16.09 Fair CLR 9.2 -0.7 50% 8 76.3 0.0
09 23:15 Calm 16.09 Fair CLR 10.2 -0.5 48% 76.3 0.0
09 22:55 N 11 16.09 Fair CLR 11.1 -0.6 45% 76.25 0.0
09 22:15 N 15 16.09 Fair CLR 13.4 -0.6 38% 76.23 0.0
09 21:55 N 13 16.09 Fair CLR 12.9 -0.1 41% 76.2 0.0
09 21:35 N 15 16.09 Fair CLR 13.5 -0.3 39% 76.12 0.0
09 21:15 N 17 16.09 Fair CLR 14.3 -0.3 37% 76.1 0.0
09 20:55 N 13 16.09 Fair CLR 15.7 -0.5 33% 76.05 0.0
09 20:35 N 13 16.09 Fair CLR 16.6 -0.1 32% 76.05 0.0
09 20:15 N 17 16.09 Fair CLR 17.9 -0.1 30% 76 0.0
09 19:55 N 19 16.09 Fair CLR 19.3 0 27% 75.97 0.0
09 19:35 N 15 16.09 Fair CLR 20 2.7 32% 75.95 0.0
09 19:15 N 20 G 28 16.09 Mostly Cloudy BKN100 20.8 3.6 32% 75.92 0.0
09 18:55 N 17 16.09 Mostly Cloudy SCT090 BKN110 20.2 4.1 24.4 20.1 35% 75.92 0.0
09 18:35 N 17 16.09 Mostly Cloudy BKN120 20.5 4.9 36% 75.92 0.0
09 18:15 N 17 G 30 16.09 Partly Cloudy SCT100 20.5 5.5 38% 75.9 0.0
09 17:55 NW 9 16.09 Mostly Cloudy SCT080 BKN100 BKN110 20.2 6 40% 75.92 0.0
09 17:35 NW 13 16.09 Mostly Cloudy BKN090 BKN110 20.2 5.6 39% 75.92 0.0
09 17:15 NW 13 16.09 Partly Cloudy SCT110 20.7 6.1 39% 75.92 0.0
09 16:55 N 20 G 41 16.09 Partly Cloudy SCT060 SCT110 20.7 6 38% 75.9 0.0
09 16:35 NE 7 16.09 Partly Cloudy SCT110 21.3 6.3 38% 75.87 0.0
09 16:15 N 19 16.09 Mostly Cloudy BKN110 20.3 5.6 38% 75.87 0.0
09 15:55 NW 15 16.09 Fair CLR 20.2 5.4 38% 75.87 0.0
09 15:35 N 24 G 39 16.09 Partly Cloudy SCT120 21 5 35% 75.84 0.0
09 15:15 N 28 G 37 16.09 Partly Cloudy SCT120 21.2 4.1 33% 75.84 0.0
09 14:55 N 31 16.09 Fair CLR 21.5 4.7 33% 75.82 0.0
09 14:35 N 28 G 39 16.09 Fair CLR 23.1 4.6 30% 75.77 0.0
09 14:15 N 28 G 37 16.09 Fair CLR 23.9 3.5 27% 25 75.74 0.0
09 13:55 N 22 G 33 16.09 Fair CLR 23.9 2.5 25% 25 75.72 0.0
09 13:35 N 15 16.09 Fair CLR 23.8 0.6 22% 75.72 0.0
09 13:15 N 11 16.09 Fair CLR 23.6 1.1 23% 75.69 0.0
09 12:55 N 19 G 35 16.09 Fair CLR 23.5 0.9 23.6 5.8 23% 75.72 0.0
09 12:35 NW 22 G 35 16.09 Fair CLR 23.4 0.8 23% 75.69 0.0
09 12:15 NW 13 G 33 16.09 Fair CLR 22.8 0.7 23% 75.72 0.0
09 11:55 N 15 G 28 16.09 Fair CLR 22.3 0.8 24% 75.72 0.0
09 11:35 NW 19 16.09 Fair CLR 21.6 0.4 24% 75.69 0.0
09 11:15 NW 19 16.09 Fair CLR 21.1 0.3 25% 75.69 0.0
09 10:55 NW 19 16.09 Fair CLR 20.7 0.7 26% 75.69 0.0
09 10:35 NW 15 16.09 Fair CLR 20.1 0.3 27% 75.69 0.0
09 10:15 N 20 16.09 Fair CLR 19.8 0.2 27% 75.72 0.0
09 09:55 N 22 G 41 16.09 Fair CLR 19 0.4 29% 75.72 0.0
09 09:35 NW 24 G 35 16.09 Partly Cloudy SCT120 17.4 1.4 34% 75.72 0.0
09 09:15 NW 28 G 37 16.09 Mostly Cloudy BKN120 16.3 5.1 48% 75.72 0.0
09 08:55 Calm 16.09 Partly Cloudy SCT120 13.8 4.2 53% 75.62 0.0
09 08:35 Calm 16.09 Fair CLR 12.4 3.7 56% 75.64 0.0
09 08:15 Calm 16.09 Fair CLR 10.8 3.6 61% 75.62 0.0
09 07:55 Calm 16.09 Fair CLR 9.6 3.9 68% 75.62 0.0
09 07:35 Calm 16.09 Partly Cloudy SCT120 8.6 3.4 70% 75.62 0.0
09 07:15 Calm 16.09 Partly Cloudy SCT120 7.4 2.7 72% 75.62 0.0
09 06:55 Calm 16.09 Partly Cloudy SCT120 5.6 1.1 13.4 3.9 73% 75.62 0.0
09 06:35 Calm 16.09 Partly Cloudy SCT120 5.5 0.4 70% 75.59 0.0
09 06:15 NW 6 16.09 Fair CLR 5.3 0 69% 75.57 0.0
09 05:55 NW 6 16.09 Fair CLR 4.7 0.4 74% 75.57 0.0
09 05:35 NW 6 16.09 Fair CLR 5.6 0.1 68% 75.57 0.0
09 05:15 W 6 16.09 Fair CLR 4.6 0.1 73% 75.59 0.0
09 04:55 Calm 16.09 Fair CLR 6 0.7 69% 75.59 0.0
09 04:35 Calm 16.09 Fair CLR 5.9 0 66% 75.59 0.0
09 04:15 Calm 16.09 Fair CLR 6 0.1 66% 75.57 0.0
09 03:55 Calm 16.09 Fair CLR 6.6 0.3 64% 75.57 0.0
09 03:35 Calm 16.09 Fair CLR 6.5 0.5 66% 75.57 0.0
09 02:55 Calm 16.09 Fair CLR 7.1 1.3 67% 75.57 0.0
09 02:35 Calm 16.09 Fair CLR 8.4 0.8 59% 75.57 0.0
09 02:15 Calm 16.09 Fair CLR 10.4 0.5 51% 75.59 0.0
09 01:55 Calm 16.09 Fair CLR 11.1 0.2 47% 75.59 0.0
09 01:35 W 7 16.09 Fair CLR 12.2 0.3 44% 75.62 0.0
09 01:15 W 7 16.09 Fair CLR 12.2 0.2 44% 75.62 0.0
09 00:55 W 9 16.09 Fair CLR 12.4 0.6 24.5 11.5 45% 75.62 0.0
09 00:35 NW 6 16.09 Fair CLR 12.1 0.6 46% 75.62 0.0
09 00:15 NW 7 16.09 Fair CLR 11.9 0.5 46% 75.62 0.0
08 23:55 W 9 16.09 Fair CLR 12.9 0.4 43% 75.62 0.0
08 23:35 W 11 16.09 Fair CLR 13.6 0.2 40% 75.59 0.0
08 23:15 W 11 16.09 Fair CLR 15.4 0.1 35% 75.59 0.0
08 22:55 W 9 16.09 Fair CLR 17 0 32% 75.57 0.0
08 22:35 W 9 16.09 Fair CLR 16 0 34% 75.57 0.0
08 22:15 W 15 16.09 Fair CLR 16.5 0.3 34% 75.57 0.0
08 21:55 W 7 16.09 Fair CLR 15.4 0 35% 75.54 0.0
08 21:35 W 7 16.09 Fair CLR 17.1 0.8 33% 75.51 0.0
08 21:15 Calm 16.09 Fair CLR 18.2 0.6 31% 75.49 0.0
08 20:55 Calm 16.09 Fair CLR 19.6 0 27% 75.46 0.0
08 20:35 W 9 16.09 Fair CLR 19.8 -0.8 25% 75.44 0.0
08 20:15 NW 11 16.09 Fair CLR 20.6 -0.9 24% 75.44 0.0
08 19:35 NW 15 G 31 16.09 Fair CLR 23.2 -2.2 18% 75.44 0.0
08 19:15 NW 26 G 31 16.09 Fair CLR 24.3 -1 19% 25 75.41 0.0
08 18:55 NW 26 G 35 16.09 Partly Cloudy SCT110 24.7 -0.4 26.5 23 19% 25 75.41 0.0
08 18:35 NW 31 G 37 16.09 Fair CLR 25.3 -0.3 19% 25 75.41 0.0
08 18:15 W 22 G 43 16.09 Partly Cloudy SCT110 25.7 -0.1 18% 25 75.41 0.0
08 17:55 NW 26 G 39 16.09 Mostly Cloudy BKN110 25.6 0.3 19% 25 75.41 0.0
08 17:15 W 22 G 30 16.09 Partly Cloudy SCT110 25.8 1.7 21% 25 75.41 0.0
08 16:55 NW 22 G 48 16.09 Partly Cloudy SCT110 26 1.9 21% 26 75.41 0.0
08 16:35 W 19 G 33 16.09 Mostly Cloudy BKN110 24.8 1.7 22% 25 75.44 0.0
08 16:15 W 11 16.09 Mostly Cloudy BKN110 24 2.5 25% 25 75.46 0.0
08 15:55 W 19 G 30 16.09 Mostly Cloudy BKN110 25.4 2.8 23% 25 75.49 0.0
08 15:35 SW 9 16.09 Mostly Cloudy BKN110 24.9 2.7 24% 25 75.49 0.0
08 15:15 SW 11 16.09 Mostly Cloudy BKN100 23.2 3 27% 75.51 0.0
08 14:55 SW 20 G 30 16.09 Overcast OVC100 23.4 2.4 25% 75.54 0.0
08 14:35 W 13 16.09 Overcast OVC110 23.3 2.9 26% 75.57 0.0
08 14:15 W 11 16.09 Overcast OVC110 23.1 2 25% 75.57 0.0
08 13:55 SW 13 16.09 Overcast OVC100 23.6 2.7 26% 75.59 0.0
08 13:35 W 15 16.09 Overcast OVC100 23.6 1.5 23% 75.59 0.0
08 13:15 Calm 16.09 Overcast OVC100 23.3 0.9 23% 75.62 0.0
08 12:55 S 6 16.09 Mostly Cloudy BKN100 23.3 1 23.5 11.6 23% 75.62 0.0
08 12:35 Calm 16.09 Fair CLR 23 0.2 22% 75.64 0.0
08 12:15 SW 6 16.09 Fair CLR 22.6 0.3 23% 75.67 0.0
08 11:55 S 7 16.09 Fair CLR 22.2 1.2 25% 75.67 0.0
08 11:35 SW 7 16.09 Fair CLR 21.9 1.1 25% 75.69 0.0
08 11:15 SE 6 16.09 Fair CLR 21.5 1.1 26% 75.69 0.0
08 10:55 Calm 16.09 Fair CLR 21.3 1.9 28% 75.69 0.0
08 10:35 NW 6 16.09 Fair CLR 20.4 2.1 30% 75.69 0.0
08 10:15 Calm 16.09 Fair CLR 19.8 2.4 32% 75.72 0.0
08 09:55 Calm 16.09 Fair CLR 19.4 2.5 33% 75.69 0.0
08 09:35 Calm 16.09 Fair CLR 18.9 2.9 35% 75.72 0.0
08 09:15 Calm 16.09 Fair CLR 17.6 3.5 39% 75.72 0.0
08 08:55 Calm 16.09 Fair CLR 16.3 3.6 43% 75.74 0.0
08 08:15 Calm 16.09 Fair CLR 14 4.8 54% 75.74 0.0
08 07:35 Calm 16.09 Mostly Cloudy BKN120 12.5 6.6 68% 75.72 0.0
08 07:15 Calm 16.09 Overcast OVC110 12.4 5.4 63% 75.69 0.0
08 06:55 Calm 16.09 Overcast BKN100 OVC120 12 3.7 13.1 9.6 57% 75.69 0.0
08 06:35 S 7 16.09 Overcast OVC100 13 0.6 43% 75.69 0.0
08 06:15 S 9 16.09 Overcast SCT090 OVC110 12 2.9 54% 75.69 0.0
08 05:55 S 7 16.09 Overcast SCT075 OVC090 11 3.7 61% 75.72 0.0
08 05:35 Calm 16.09 Light Rain BKN065 BKN090 OVC110 10.9 2.6 57% 75.74 0.0
08 05:15 Calm 16.09 Overcast OVC110 12.1 0.2 44% 75.74 0.0
08 04:55 Calm 16.09 Overcast OVC100 11.7 0.3 46% 75.74 0.0
08 04:35 SE 7 16.09 Overcast OVC110 10.6 2 56% 75.74 0.0
08 04:15 Calm 16.09 Mostly Cloudy BKN110 9.6 1.9 59% 75.74 0.0
08 03:55 Calm 16.09 Mostly Cloudy BKN110 11.1 0.8 49% 75.74 0.0
08 03:35 Calm 16.09 Overcast OVC110 11.6 0 45% 75.74 0.0
08 03:15 N 6 16.09 Overcast OVC110 10.8 1.8 54% 75.79 0.0
08 02:35 Calm 16.09 Overcast OVC110 11.1 3.9 61% 75.79 0.0
08 02:15 Calm 16.09 Mostly Cloudy BKN110 12.4 0.7 45% 75.79 0.0
08 01:55 E 9 16.09 Overcast OVC110 11.4 3.1 57% 75.74 0.0
08 01:35 Calm 16.09 Overcast OVC110 11.8 2.7 54% 75.79 0.0
08 01:15 Calm 16.09 Partly Cloudy SCT110 11.5 2.1 53% 75.79 0.0
08 00:55 Calm 16.09 Fair CLR 11.3 2.8 20.5 9 56% 75.79 0.0
08 00:35 Calm 16.09 Fair CLR 11.6 2.2 53% 75.74 0.0
08 00:15 Calm 16.09 Partly Cloudy SCT120 10.7 3.6 62% 75.77 0.0
07 23:55 Calm 16.09 Mostly Cloudy BKN120 11.8 1.6 50% 75.77 0.0
07 23:35 Calm 16.09 Partly Cloudy SCT120 10.7 0.9 51% 75.77 0.0
07 23:15 Calm 16.09 Partly Cloudy SCT120 10 -0.5 48% 75.79 0.0
07 22:55 Calm 16.09 Fair CLR 9.1 0.1 54% 75.79 0.0
07 22:35 Calm 16.09 Fair CLR 10.7 -0.3 47% 75.79 0.0
07 21:55 Calm 16.09 Fair CLR 12.9 -1.1 38% 75.79 0.0
07 21:35 Calm 8.05 Fair with Haze CLR 13.1 -1.1 38% 75.74 0.0
07 21:15 Calm 16.09 Fair CLR 14.5 -2.3 32% 75.74 0.0
07 20:55 Calm 16.09 Fair CLR 15.1 -3.1 29% 75.72 0.0
07 20:35 Calm 16.09 Fair CLR 16 -2.3 29% 75.72 0.0
07 20:15 N 7 16.09 Fair CLR 17 -1.8 28% 75.69 0.0
07 19:55 N 9 16.09 Fair CLR 17.7 -1.4 27% 75.69 0.0
07 19:35 NW 11 16.09 Fair CLR 18.6 -1.2 26% 75.69 0.0
07 19:15 N 15 16.09 Fair CLR 19 -3.5 22% 75.69 0.0
07 18:55 NW 13 16.09 Fair CLR 20.6 -3.5 21.8 18.6 20% 75.67 0.0
07 18:35 NW 11 16.09 Fair CLR 20.5 -2.8 21% 75.69 0.0
07 18:15 NW 19 G 28 16.09 Fair CLR 21 -2.1 21% 75.67 0.0
07 17:55 NW 19 16.09 Fair CLR 21.3 -1.6 22% 75.67 0.0
07 17:35 NW 15 G 26 16.09 Fair CLR 20.9 -2.5 21% 75.67 0.0
07 17:15 N 11 16.09 Fair CLR 21.1 -1.5 22% 75.67 0.0
07 16:55 NW 24 G 37 16.09 Fair CLR 21.5 -1.1 22% 75.67 0.0
07 16:35 NW 24 G 31 16.09 Fair CLR 21.4 -0.7 23% 75.69 0.0
07 16:15 NW 20 G 28 16.09 Fair CLR 21.7 -0.3 23% 75.69 0.0
07 15:55 W 17 G 31 16.09 Fair CLR 21.7 -0.9 22% 75.69 0.0
07 15:35 NW 13 G 31 16.09 Partly Cloudy SCT090 21.6 -0.2 23% 75.72 0.0
07 15:15 NW 15 G 37 16.09 Partly Cloudy SCT090 21.1 -0.7 23% 75.74 0.0
07 14:35 NW 11 16.09 Partly Cloudy SCT090 20.6 -0.1 25% 75.74 0.0
07 14:15 Calm 16.09 Fair CLR 20.2 1.6 29% 75.72 0.0
07 13:55 NW 13 16.09 Fair CLR 19.8 2.3 31% 75.74 0.0
07 13:35 SW 9 16.09 Fair CLR 19 3 35% 75.74 0.0
07 13:15 W 13 16.09 Fair CLR 18.7 2.7 35% 75.74 0.0
07 12:55 W 6 16.09 Fair CLR 18.5 2.8 18.8 7.8 35% 75.77 0.0
07 12:15 W 11 16.09 Fair CLR 18.3 3.7 38% 75.79 0.0
07 11:55 Calm 16.09 Fair CLR 17.3 2.7 38% 75.82 0.0
07 11:35 W 15 16.09 Fair CLR 17.4 2.8 38% 75.82 0.0
Date Time (cdt) Wind (kph) Vis. (km) Weather Sky Cond. Air Dwpt Max. Min. Relative Humidity Wind Chill (°C) Heat Index (°C) altimeter (cm) sea level (mb) 1 hr 3 hr 6 hr
6 hour
Temperature (ºC) Pressure Precipitation (cm)